Time;durP1;ratioP1;P1;durP2;ratioP2;P2;SDS_P1;SDS_P2;PMS_P1;PMS_P2;Temp;Humidity;BMP_temperature;BMP_pressure;BME280_temperature;BME280_humidity;BME280_pressure;Samples;Min_cycle;Max_cycle;Signal;HPM_P1;HPM_P2
2022/03/31 00:01:32;;;;;;;43.88;31.58;;;;;;;8.53;100.00;96666.22;4985179;28;20034;-64
2022/03/31 00:03:58;;;;;;;45.95;31.90;;;;;;;8.78;100.00;96710.75;4984205;28;20080;-63
2022/03/31 00:06:23;;;;;;;43.22;31.52;;;;;;;8.48;100.00;96658.16;4982472;28;20022;-63
2022/03/31 00:08:48;;;;;;;42.40;31.33;;;;;;;8.62;100.00;96702.19;4983491;28;20034;-63
2022/03/31 00:11:14;;;;;;;44.40;31.83;;;;;;;8.71;100.00;96704.72;4984858;28;20053;-62
2022/03/31 00:13:41;;;;;;;44.10;32.22;;;;;;;8.66;100.00;96700.84;4983075;28;20523;-63
2022/03/31 00:16:07;;;;;;;47.67;31.85;;;;;;;8.61;100.00;96687.63;4986420;28;20037;-64
2022/03/31 00:18:33;;;;;;;46.33;31.45;;;;;;;8.62;100.00;96678.09;4982716;28;20030;-64
2022/03/31 00:20:59;;;;;;;43.88;32.63;;;;;;;8.63;100.00;96677.09;4971572;28;20123;-62
2022/03/31 00:23:25;;;;;;;44.65;31.65;;;;;;;8.61;100.00;96661.72;4985297;28;20065;-62
2022/03/31 00:25:51;;;;;;;48.83;33.53;;;;;;;8.49;100.00;96628.69;4982910;28;20483;-62
2022/03/31 00:28:16;;;;;;;43.08;31.27;;;;;;;8.65;100.00;96670.75;4985106;28;20036;-61
2022/03/31 00:30:42;;;;;;;43.38;32.30;;;;;;;8.63;100.00;96659.78;4968827;28;20030;-64
2022/03/31 00:33:08;;;;;;;44.60;31.15;;;;;;;8.66;100.00;96654.22;4983039;28;20038;-63
2022/03/31 00:35:34;;;;;;;45.95;31.63;;;;;;;8.32;100.00;96615.09;4985540;28;20026;-64
2022/03/31 00:38:00;;;;;;;41.10;30.90;;;;;;;8.52;100.00;96643.88;4984657;28;20034;-64
2022/03/31 00:40:25;;;;;;;42.10;30.83;;;;;;;8.44;100.00;96600.75;4985431;28;20030;-62
2022/03/31 00:42:55;;;;;;;47.08;31.73;;;;;;;8.66;100.00;96632.69;4984397;28;20386;-62
2022/03/31 00:45:32;;;;;;;45.17;30.45;;;;;;;8.42;100.00;96597.53;4976742;28;21124;-63
2022/03/31 00:47:58;;;;;;;44.83;30.52;;;;;;;8.37;100.00;96581.69;4981763;28;20129;-61
2022/03/31 00:50:23;;;;;;;42.60;30.70;;;;;;;8.52;100.00;96603.22;4985549;28;20049;-63
2022/03/31 00:52:49;;;;;;;43.88;30.15;;;;;;;8.58;100.00;96610.28;4972018;28;20485;-62
2022/03/31 00:55:16;;;;;;;40.20;29.20;;;;;;;8.63;100.00;96613.16;4975785;28;20026;-62
2022/03/31 00:57:45;;;;;;;44.55;30.30;;;;;;;8.61;100.00;96609.13;4982214;28;20472;-63
2022/03/31 01:00:14;;;;;;;37.95;28.40;;;;;;;8.61;100.00;96604.72;4979884;28;20503;-63
2022/03/31 01:02:41;;;;;;;43.15;30.42;;;;;;;8.38;100.00;96554.84;4984394;28;20034;-62
2022/03/31 01:05:07;;;;;;;43.20;28.75;;;;;;;8.71;100.00;96593.31;4984568;28;20026;-63
2022/03/31 01:07:40;;;;;;;39.88;28.77;;;;;;;8.56;100.00;96562.22;4983353;28;20125;-64
2022/03/31 01:10:07;;;;;;;40.35;27.63;;;;;;;8.87;100.00;96602.63;4986263;28;20084;-62
2022/03/31 01:12:33;;;;;;;35.47;26.90;;;;;;;8.51;100.00;96539.47;4984371;28;20069;-64
2022/03/31 01:15:07;;;;;;;34.83;26.35;;;;;;;8.87;100.00;96587.91;4984733;28;20057;-61
2022/03/31 01:17:36;;;;;;;34.40;23.63;;;;;;;8.41;100.00;96513.81;4982862;28;20035;-62
2022/03/31 01:20:03;;;;;;;;;;;;;;;8.88;100.00;96586.09;4984160;28;20026;-62
2022/03/31 01:22:30;;;;;;;29.08;21.23;;;;;;;8.81;100.00;96575.66;4983121;28;20013;-62
2022/03/31 01:24:57;;;;;;;36.28;24.45;;;;;;;8.88;100.00;96575.75;4965173;28;20116;-62
2022/03/31 01:27:23;;;;;;;31.80;23.15;;;;;;;8.89;100.00;96578.16;4984295;28;20030;-63
2022/03/31 01:29:49;;;;;;;32.00;22.95;;;;;;;8.85;100.00;96575.13;4965871;28;20037;-62
2022/03/31 01:32:14;;;;;;;30.38;22.27;;;;;;;8.94;100.00;96580.19;4981282;28;20030;-62
2022/03/31 01:34:39;;;;;;;31.10;21.33;;;;;;;8.86;100.00;96575.91;4981170;28;20432;-63
2022/03/31 01:37:05;;;;;;;26.95;20.90;;;;;;;8.82;100.00;96572.09;4982460;28;20426;-62
2022/03/31 01:39:31;;;;;;;26.52;19.30;;;;;;;8.79;100.00;96569.84;4984578;28;20038;-62
2022/03/31 01:41:57;;;;;;;26.27;19.58;;;;;;;8.74;100.00;96574.78;4981350;28;20041;-63
2022/03/31 01:44:22;;;;;;;33.10;22.23;;;;;;;8.78;100.00;96576.00;4986062;28;20199;-63
2022/03/31 01:46:48;;;;;;;34.47;23.55;;;;;;;8.84;100.00;96570.91;4985133;28;20034;-61
2022/03/31 01:49:14;;;;;;;36.53;24.13;;;;;;;8.89;100.00;96577.31;4980291;28;20038;-61
2022/03/31 01:51:40;;;;;;;31.20;22.85;;;;;;;8.75;100.00;96568.63;4985898;28;20416;-62
2022/03/31 01:54:06;;;;;;;34.90;22.45;;;;;;;8.80;100.00;96574.06;4968872;28;20050;-62
2022/03/31 01:56:31;;;;;;;31.63;23.30;;;;;;;8.68;100.00;96567.75;4985301;28;20164;-63
2022/03/31 01:58:57;;;;;;;33.78;22.50;;;;;;;8.73;100.00;96568.00;4997360;28;20030;-64
2022/03/31 02:01:23;;;;;;;32.08;23.35;;;;;;;8.76;100.00;96562.44;4983166;28;20026;-61
2022/03/31 02:03:48;;;;;;;32.30;23.42;;;;;;;8.76;100.00;96560.69;4982184;28;20909;-61
2022/03/31 02:06:14;;;;;;;34.53;22.38;;;;;;;8.79;100.00;96564.69;4983494;28;20065;-61
2022/03/31 02:08:39;;;;;;;35.30;23.27;;;;;;;8.73;100.00;96552.47;4983741;28;20373;-63
2022/03/31 02:11:04;;;;;;;31.58;22.88;;;;;;;8.75;100.00;96553.06;4982208;28;20125;-61
2022/03/31 02:13:30;;;;;;;30.83;22.58;;;;;;;8.78;100.00;96553.50;4985717;28;20034;-63
2022/03/31 02:15:55;;;;;;;34.92;23.00;;;;;;;8.51;100.00;96505.78;4983785;28;20034;-64
2022/03/31 02:18:21;;;;;;;30.60;22.17;;;;;;;8.84;100.00;96554.56;4986611;28;20466;-64
2022/03/31 02:20:46;;;;;;;30.88;21.90;;;;;;;8.82;100.00;96556.53;4981498;28;20054;-61
2022/03/31 02:23:12;;;;;;;33.08;22.17;;;;;;;8.85;100.00;96549.19;4983139;28;20506;-62
2022/03/31 02:25:38;;;;;;;33.58;21.77;;;;;;;8.82;100.00;96534.00;4980951;28;20080;-63
2022/03/31 02:28:04;;;;;;;31.85;22.15;;;;;;;8.89;100.00;96543.63;4982913;28;20582;-63
2022/03/31 02:30:30;;;;;;;33.40;22.63;;;;;;;8.92;100.00;96551.06;4983383;28;20572;-63
2022/03/31 02:32:56;;;;;;;30.92;22.25;;;;;;;8.93;100.00;96542.31;4980857;28;20141;-62
2022/03/31 02:35:21;;;;;;;31.77;22.38;;;;;;;8.95;100.00;96541.13;4982445;28;20424;-63
2022/03/31 02:37:47;;;;;;;29.48;22.15;;;;;;;8.95;100.00;96535.94;4982913;28;20034;-63
2022/03/31 02:40:12;;;;;;;32.13;22.55;;;;;;;8.97;100.00;96538.34;4982709;28;20106;-63
2022/03/31 02:42:38;;;;;;;29.52;22.05;;;;;;;8.83;100.00;96534.81;4983365;28;20061;-63
2022/03/31 02:45:04;;;;;;;31.00;22.63;;;;;;;8.89;100.00;96526.31;4983096;28;20142;-63
2022/03/31 02:47:30;;;;;;;31.55;20.85;;;;;;;8.95;100.00;96527.38;4984809;28;20397;-63
2022/03/31 02:49:58;;;;;;;28.50;21.20;;;;;;;8.74;100.00;96495.25;4982846;28;20033;-63
2022/03/31 02:52:23;;;;;;;29.38;21.15;;;;;;;8.90;100.00;96533.09;4981358;28;20114;-63
2022/03/31 02:57:33;;;;;;;31.30;21.90;;;;;;;8.56;100.00;96480.16;4984104;28;20072;-62
2022/03/31 02:59:58;;;;;;;30.52;21.27;;;;;;;8.83;100.00;96517.50;4980506;28;20113;-62
2022/03/31 03:02:23;;;;;;;29.58;21.17;;;;;;;8.55;100.00;96460.41;4998029;28;20054;-63
2022/03/31 03:04:50;;;;;;;32.33;20.45;;;;;;;8.87;100.00;96515.34;4970669;28;20033;-63
2022/03/31 03:07:15;;;;;;;30.13;20.33;;;;;;;8.82;100.00;96508.09;4982071;28;20652;-61
2022/03/31 03:09:41;;;;;;;30.45;21.05;;;;;;;8.95;100.00;96509.22;4999835;28;20030;-62
2022/03/31 03:12:07;;;;;;;29.45;21.58;;;;;;;8.89;100.00;96495.22;4981429;28;20109;-65
2022/03/31 03:14:32;;;;;;;28.83;20.50;;;;;;;8.82;100.00;96491.75;4983087;28;20396;-63
2022/03/31 03:16:59;;;;;;;30.45;21.30;;;;;;;8.94;100.00;96492.06;4986458;28;20472;-64
2022/03/31 03:19:24;;;;;;;30.27;20.65;;;;;;;8.84;100.00;96487.19;4986719;28;20049;-63
2022/03/31 03:21:50;;;;;;;30.67;21.50;;;;;;;8.83;100.00;96482.97;4988159;28;20073;-64
2022/03/31 03:24:15;;;;;;;26.95;20.20;;;;;;;8.53;100.00;96446.84;4985163;28;20037;-62
2022/03/31 03:26:40;;;;;;;28.52;21.08;;;;;;;8.82;100.00;96492.56;4983449;28;20400;-64
2022/03/31 03:29:06;;;;;;;29.85;21.80;;;;;;;8.81;100.00;96479.78;4995149;28;20124;-62
2022/03/31 03:31:31;;;;;;;27.63;20.67;;;;;;;8.84;100.00;96474.22;4986735;28;20030;-62
2022/03/31 03:33:57;;;;;;;30.92;20.73;;;;;;;8.91;100.00;96476.84;5001551;28;20540;-63
2022/03/31 03:36:22;;;;;;;28.25;21.08;;;;;;;8.93;100.00;96480.88;4986855;28;20042;-62
2022/03/31 03:38:48;;;;;;;30.23;21.77;;;;;;;8.90;100.00;96478.66;4984499;28;20513;-63
2022/03/31 03:41:13;;;;;;;30.63;22.65;;;;;;;8.92;100.00;96481.06;4984865;28;20090;-63
2022/03/31 03:43:40;;;;;;;34.65;23.67;;;;;;;8.82;100.00;96473.63;4986594;28;20576;-63
2022/03/31 03:46:06;;;;;;;35.92;23.58;;;;;;;8.69;100.00;96463.13;4970537;28;20786;-63
2022/03/31 03:48:31;;;;;;;36.25;25.23;;;;;;;8.55;100.00;96467.38;4986858;28;20038;-64
2022/03/31 03:50:57;;;;;;;34.80;25.10;;;;;;;8.54;100.00;96460.59;4986019;28;20068;-63
2022/03/31 03:53:22;;;;;;;32.55;24.48;;;;;;;8.32;100.00;96442.41;4987053;28;20772;-63
2022/03/31 03:55:48;;;;;;;33.97;24.60;;;;;;;8.39;100.00;96460.59;4984154;28;20041;-63
2022/03/31 03:58:13;;;;;;;36.80;24.38;;;;;;;8.35;100.00;96465.34;4977948;28;20093;-63
2022/03/31 04:00:39;;;;;;;34.78;23.73;;;;;;;8.38;100.00;96470.16;4986014;28;20030;-62
2022/03/31 04:03:05;;;;;;;33.08;23.70;;;;;;;8.26;100.00;96454.28;4982831;28;20073;-61
2022/03/31 04:05:30;;;;;;;32.72;23.15;;;;;;;8.35;100.00;96455.00;4987442;28;20036;-62
2022/03/31 04:07:55;;;;;;;34.78;23.02;;;;;;;8.32;100.00;96449.38;4987259;28;20060;-61
2022/03/31 04:10:21;;;;;;;37.35;23.88;;;;;;;8.32;100.00;96452.75;4986443;28;20026;-64
2022/03/31 04:12:46;;;;;;;37.20;25.95;;;;;;;8.28;100.00;96446.34;4986131;28;20022;-63
2022/03/31 04:15:14;;;;;;;35.88;25.45;;;;;;;8.28;100.00;96460.09;4986583;28;20049;-63
2022/03/31 04:17:42;;;;;;;41.42;26.48;;;;;;;8.33;100.00;96448.41;4981537;28;20081;-63
2022/03/31 04:20:08;;;;;;;38.50;25.70;;;;;;;8.30;100.00;96446.97;4978949;28;20120;-63
2022/03/31 04:22:34;;;;;;;41.00;27.30;;;;;;;8.31;100.00;96446.00;4984561;28;20042;-64
2022/03/31 04:25:00;;;;;;;40.33;27.08;;;;;;;8.31;100.00;96437.44;4985908;28;20092;-63
2022/03/31 04:27:25;;;;;;;37.20;25.83;;;;;;;8.02;100.00;96400.28;5000853;28;20801;-62
2022/03/31 04:29:50;;;;;;;41.58;27.52;;;;;;;8.28;100.00;96436.00;4982940;28;20137;-64
2022/03/31 04:32:16;;;;;;;38.53;26.33;;;;;;;8.40;100.00;96436.31;4986397;28;20050;-62
2022/03/31 04:34:41;;;;;;;36.90;26.85;;;;;;;8.39;100.00;96426.94;5002457;28;20030;-62
2022/03/31 04:37:07;;;;;;;39.88;26.95;;;;;;;8.37;100.00;96421.16;4983955;28;20109;-63
2022/03/31 04:39:32;;;;;;;39.92;26.73;;;;;;;8.27;100.00;96422.25;4983304;28;20433;-63
2022/03/31 04:41:58;;;;;;;38.85;26.55;;;;;;;8.06;100.00;96384.19;4986682;28;20073;-63
2022/03/31 04:44:23;;;;;;;39.03;27.30;;;;;;;8.07;100.00;96382.41;4982752;28;20038;-64
2022/03/31 04:46:49;;;;;;;40.92;26.45;;;;;;;8.23;100.00;96412.44;4986729;28;20042;-62
2022/03/31 04:49:14;;;;;;;40.50;27.70;;;;;;;8.23;100.00;96415.84;4984582;28;20030;-63
2022/03/31 04:51:40;;;;;;;40.92;27.00;;;;;;;8.24;100.00;96409.66;4985702;28;20038;-63
2022/03/31 04:54:06;;;;;;;40.92;27.70;;;;;;;8.20;100.00;96410.22;4984570;28;20031;-62
2022/03/31 04:56:31;;;;;;;38.55;26.20;;;;;;;8.25;100.00;96403.50;4983504;28;20038;-63
2022/03/31 04:58:57;;;;;;;37.72;26.52;;;;;;;8.19;100.00;96393.06;4984958;28;20076;-63
2022/03/31 05:01:23;;;;;;;39.60;27.48;;;;;;;7.77;100.00;96322.97;4983476;28;20031;-61
2022/03/31 05:03:49;;;;;;;37.42;26.50;;;;;;;8.21;100.00;96388.50;4983773;28;20026;-62
2022/03/31 05:06:15;;;;;;;38.97;25.95;;;;;;;8.13;100.00;96386.06;4982487;28;20741;-63
2022/03/31 05:08:41;;;;;;;37.90;26.15;;;;;;;8.17;100.00;96385.50;4988651;28;20708;-64
2022/03/31 05:11:07;;;;;;;36.30;25.77;;;;;;;8.18;100.00;96391.50;4984950;28;20073;-64
2022/03/31 05:13:32;;;;;;;35.78;25.08;;;;;;;8.20;100.00;96400.66;4985731;28;20026;-63
2022/03/31 05:15:58;;;;;;;37.92;27.10;;;;;;;8.04;100.00;96364.66;4998944;28;20084;-62
2022/03/31 05:18:23;;;;;;;39.05;25.35;;;;;;;8.27;100.00;96386.00;4986339;28;20089;-64
2022/03/31 05:20:49;;;;;;;34.13;25.13;;;;;;;8.22;100.00;96393.50;4977930;28;20030;-64
2022/03/31 05:23:14;;;;;;;38.00;26.17;;;;;;;8.23;100.00;96378.78;4926712;28;21121;-63
2022/03/31 05:25:40;;;;;;;34.53;25.38;;;;;;;8.33;100.00;96378.50;4982426;28;20563;-62
2022/03/31 05:28:06;;;;;;;40.97;25.40;;;;;;;8.33;100.00;96376.69;4962910;28;20532;-62
2022/03/31 05:30:32;;;;;;;39.67;25.65;;;;;;;8.21;100.00;96370.41;4983954;28;20036;-63
2022/03/31 05:32:59;;;;;;;38.17;26.35;;;;;;;8.21;100.00;96363.44;4981984;28;20038;-63
2022/03/31 05:35:27;;;;;;;35.92;25.08;;;;;;;8.34;100.00;96365.38;4964886;28;20026;-62
2022/03/31 05:37:53;;;;;;;41.55;25.48;;;;;;;8.32;100.00;96356.94;4979874;28;20030;-61
2022/03/31 05:40:19;;;;;;;38.17;25.45;;;;;;;8.40;100.00;96371.59;4904461;28;20058;-61
2022/03/31 05:42:45;;;;;;;37.25;25.27;;;;;;;8.40;100.00;96359.44;4976828;28;20118;-64
2022/03/31 05:45:12;;;;;;;37.30;24.65;;;;;;;8.28;100.00;96335.81;4976878;28;20561;-62
2022/03/31 05:47:39;;;;;;;36.92;25.25;;;;;;;8.36;100.00;96365.16;4969484;28;20101;-63
2022/03/31 05:50:06;;;;;;;37.10;25.70;;;;;;;8.30;100.00;96361.53;4953996;28;20045;-63
2022/03/31 05:52:32;;;;;;;38.22;25.42;;;;;;;8.23;100.00;96351.13;4954555;28;20034;-63
2022/03/31 05:54:57;;;;;;;36.20;24.08;;;;;;;8.28;100.00;96359.09;4968061;28;20503;-64
2022/03/31 05:57:23;;;;;;;38.72;26.67;;;;;;;8.33;100.00;96366.34;4979550;28;20527;-62
2022/03/31 05:59:48;;;;;;;40.13;27.05;;;;;;;8.37;100.00;96351.22;4974999;28;20027;-62
2022/03/31 06:02:14;;;;;;;42.33;26.80;;;;;;;8.35;100.00;96354.00;4973834;28;20042;-61
2022/03/31 06:04:40;;;;;;;45.28;27.30;;;;;;;8.47;100.00;96359.53;4990352;28;20037;-62
2022/03/31 06:07:07;;;;;;;39.28;26.98;;;;;;;8.55;100.00;96359.38;4980846;28;20026;-62
2022/03/31 06:09:33;;;;;;;40.28;27.48;;;;;;;8.52;100.00;96356.38;4975425;28;20958;-62
2022/03/31 06:11:58;;;;;;;36.97;25.77;;;;;;;8.23;100.00;96308.88;5013548;28;20480;-62
2022/03/31 06:14:24;;;;;;;36.92;25.92;;;;;;;8.41;100.00;96349.88;4983373;28;20484;-62
2022/03/31 06:16:50;;;;;;;38.28;25.83;;;;;;;8.45;100.00;96348.53;4982376;28;20038;-62
2022/03/31 06:19:16;;;;;;;38.35;26.52;;;;;;;8.22;100.00;96315.06;4976137;28;20034;-61
2022/03/31 06:21:41;;;;;;;35.45;25.13;;;;;;;8.52;100.00;96341.63;4983614;28;20389;-62
2022/03/31 06:24:07;;;;;;;37.97;25.70;;;;;;;8.44;100.00;96331.41;4970934;28;20030;-62
2022/03/31 06:26:33;;;;;;;35.05;25.02;;;;;;;8.57;100.00;96335.88;4967115;28;20428;-61
2022/03/31 06:28:59;;;;;;;38.45;24.85;;;;;;;8.51;100.00;96328.88;4982568;28;20049;-61
2022/03/31 06:31:25;;;;;;;37.75;24.98;;;;;;;8.34;100.00;96297.22;4977438;28;20069;-62
2022/03/31 06:33:51;;;;;;;36.97;24.45;;;;;;;8.35;100.00;96304.00;4983070;28;20386;-63
2022/03/31 06:36:17;;;;;;;36.10;26.30;;;;;;;8.65;100.00;96326.19;4982683;28;20069;-63
2022/03/31 06:38:42;;;;;;;35.17;24.90;;;;;;;8.61;100.00;96329.34;4988195;28;20527;-63
2022/03/31 06:41:10;;;;;;;36.30;23.70;;;;;;;8.39;100.00;96274.16;4976062;28;20376;-63
2022/03/31 06:43:40;;;;;;;35.05;25.38;;;;;;;8.75;100.00;96319.88;4982887;28;20038;-63
2022/03/31 06:46:07;;;;;;;35.70;25.02;;;;;;;8.75;100.00;96305.13;4965685;28;20633;-63
2022/03/31 06:48:32;;;;;;;39.33;25.42;;;;;;;8.55;100.00;96270.53;4979081;28;20810;-62
2022/03/31 06:50:58;;;;;;;34.80;24.20;;;;;;;8.80;99.18;96301.97;4970208;28;20033;-63
2022/03/31 06:53:24;;;;;;;37.45;23.40;;;;;;;8.77;99.67;96305.75;4981228;28;20038;-63
2022/03/31 06:55:50;;;;;;;41.80;24.05;;;;;;;8.50;100.00;96259.94;4981893;28;20042;-63
2022/03/31 06:58:16;;;;;;;34.95;25.30;;;;;;;8.81;99.45;96306.94;4970934;28;20022;-60
2022/03/31 07:00:42;;;;;;;33.90;24.90;;;;;;;8.89;99.04;96305.19;4972276;28;20382;-60
2022/03/31 07:03:07;;;;;;;36.92;24.75;;;;;;;8.90;99.25;96309.41;4964145;28;20026;-63
2022/03/31 07:05:36;;;;;;;40.65;24.67;;;;;;;8.79;99.16;96300.38;4980753;28;20065;-62
2022/03/31 07:08:02;;;;;;;38.65;25.17;;;;;;;8.78;99.40;96289.22;4976346;28;20042;-62
2022/03/31 07:10:28;;;;;;;39.83;24.63;;;;;;;8.93;98.78;96294.28;4974243;28;20038;-62
2022/03/31 07:12:54;;;;;;;34.10;24.40;;;;;;;8.91;98.03;96303.22;4972613;28;20054;-62
2022/03/31 07:15:19;;;;;;;36.42;25.73;;;;;;;8.90;96.72;96299.84;4980305;28;20057;-63
2022/03/31 07:17:45;;;;;;;39.33;26.88;;;;;;;8.80;98.73;96299.38;4980555;28;20050;-62
2022/03/31 07:20:10;;;;;;;37.22;27.05;;;;;;;8.77;98.90;96297.16;4969293;28;20077;-62
2022/03/31 07:22:43;;;;;;;37.45;26.42;;;;;;;8.56;98.37;96252.22;4980463;28;20038;-61
2022/03/31 07:25:09;;;;;;;34.30;24.35;;;;;;;8.77;97.80;96297.16;4996181;28;20037;-63
2022/03/31 07:27:35;;;;;;;34.78;25.20;;;;;;;8.85;97.61;96295.25;4978727;28;20125;-62
2022/03/31 07:30:00;;;;;;;33.80;25.23;;;;;;;8.84;97.95;96278.06;4980875;28;20453;-62
2022/03/31 07:32:25;;;;;;;35.10;23.52;;;;;;;8.84;95.88;96285.84;4979828;28;20540;-63
2022/03/31 07:34:51;;;;;;;33.30;24.40;;;;;;;8.89;96.88;96287.88;4997288;28;20061;-63
2022/03/31 07:37:16;;;;;;;35.30;24.33;;;;;;;8.89;96.02;96279.28;4978956;28;20027;-62
2022/03/31 07:39:45;;;;;;;38.00;25.20;;;;;;;8.83;97.64;96280.84;4978928;28;20038;-63
2022/03/31 07:42:11;;;;;;;40.28;26.02;;;;;;;8.91;97.09;96285.91;4980741;28;20440;-62
2022/03/31 07:44:37;;;;;;;37.50;24.27;;;;;;;8.87;95.92;96287.28;4987034;28;20028;-62
2022/03/31 07:47:02;;;;;;;34.78;24.33;;;;;;;8.87;95.09;96282.09;4977200;28;20038;-62
2022/03/31 07:49:27;;;;;;;35.20;24.17;;;;;;;8.97;94.63;96276.56;4974781;28;20096;-63
2022/03/31 07:51:53;;;;;;;38.35;25.20;;;;;;;9.08;95.15;96277.81;4974624;28;20049;-63
2022/03/31 07:54:19;;;;;;;36.55;25.67;;;;;;;9.02;94.60;96282.75;4976223;28;20109;-63
2022/03/31 07:56:45;;;;;;;33.42;24.95;;;;;;;8.91;94.40;96267.75;4990445;28;20042;-64
2022/03/31 07:59:11;;;;;;;34.60;24.52;;;;;;;9.01;94.62;96273.38;4978802;28;20701;-64
2022/03/31 08:01:37;;;;;;;33.40;24.48;;;;;;;8.94;94.74;96272.53;4977598;28;20038;-63
2022/03/31 08:04:03;;;;;;;34.97;25.10;;;;;;;9.05;94.58;96276.38;4990452;28;20021;-63
2022/03/31 08:06:29;;;;;;;33.58;25.08;;;;;;;9.04;95.42;96277.41;4978911;28;20041;-64
2022/03/31 08:08:55;;;;;;;34.50;25.00;;;;;;;9.05;94.98;96268.59;4966706;28;20528;-63
2022/03/31 08:11:20;;;;;;;37.47;25.05;;;;;;;9.06;94.93;96261.66;4982065;28;20065;-63
2022/03/31 08:13:46;;;;;;;33.50;24.50;;;;;;;8.92;93.61;96222.69;4976744;28;20408;-64
2022/03/31 08:16:11;;;;;;;33.63;22.58;;;;;;;9.26;93.58;96267.72;4983518;28;20536;-63
2022/03/31 08:18:37;;;;;;;32.65;23.63;;;;;;;9.17;94.07;96254.09;4967314;28;20129;-63
2022/03/31 08:21:02;;;;;;;33.38;23.08;;;;;;;9.02;93.30;96214.56;4962367;28;20114;-63
2022/03/31 08:23:28;;;;;;;30.20;23.45;;;;;;;9.28;93.72;96249.38;4985295;28;20564;-63
2022/03/31 08:25:54;;;;;;;34.70;24.45;;;;;;;9.30;94.23;96253.34;4983350;28;20077;-63
2022/03/31 08:28:20;;;;;;;37.55;23.90;;;;;;;9.33;94.97;96255.56;4983002;28;20678;-63
2022/03/31 08:30:46;;;;;;;34.97;25.02;;;;;;;9.13;93.41;96213.22;4985896;28;20034;-63
2022/03/31 08:33:11;;;;;;;33.03;24.33;;;;;;;9.32;94.55;96258.34;4989289;28;20025;-62
2022/03/31 08:35:37;;;;;;;36.15;23.85;;;;;;;9.34;93.69;96243.41;4993330;28;20473;-62
2022/03/31 08:38:03;;;;;;;35.83;24.80;;;;;;;9.31;94.51;96252.38;4982702;28;20439;-63
2022/03/31 08:40:28;;;;;;;32.40;23.70;;;;;;;9.32;94.40;96248.00;4983247;28;20552;-62
2022/03/31 08:42:54;;;;;;;33.08;23.67;;;;;;;9.29;94.46;96243.19;4985812;28;20034;-64
2022/03/31 08:45:20;;;;;;;34.85;24.35;;;;;;;9.33;94.65;96249.59;4982283;28;20026;-63
2022/03/31 08:47:48;;;;;;;34.20;23.98;;;;;;;9.35;93.87;96245.81;4976491;28;20036;-63
2022/03/31 08:50:14;;;;;;;35.78;23.83;;;;;;;9.46;93.00;96247.03;4995954;28;20038;-62
2022/03/31 08:52:40;;;;;;;35.00;24.48;;;;;;;9.60;92.82;96240.06;4977691;28;20049;-63
2022/03/31 08:55:08;;;;;;;30.83;23.90;;;;;;;9.55;93.33;96239.88;4973311;28;20437;-62
2022/03/31 08:58:01;;;;;;;33.63;23.63;;;;;;;9.65;92.82;96240.28;4985260;28;20096;-62
2022/03/31 09:00:27;;;;;;;32.30;23.13;;;;;;;9.73;91.85;96239.28;4981467;28;20121;-63
2022/03/31 09:02:55;;;;;;;33.42;22.88;;;;;;;9.67;91.54;96232.31;4963070;28;20189;-63
2022/03/31 09:05:20;;;;;;;30.38;22.17;;;;;;;9.85;91.00;96234.34;4981396;28;20475;-62
2022/03/31 09:07:57;;;;;;;32.67;23.52;;;;;;;9.80;90.97;96230.56;4982829;28;20050;-63
2022/03/31 09:10:30;;;;;;;32.80;21.98;;;;;;;9.74;88.84;96230.53;5008181;28;20026;-63
2022/03/31 09:12:56;;;;;;;33.65;22.83;;;;;;;9.84;89.17;96230.94;4977641;28;20034;-64
2022/03/31 09:15:21;;;;;;;31.73;21.80;;;;;;;9.81;88.42;96189.81;4977785;28;20038;-63
2022/03/31 09:17:52;;;;;;;32.75;23.13;;;;;;;10.09;88.86;96233.75;4971825;28;20875;-64
2022/03/31 09:20:18;;;;;;;32.53;23.27;;;;;;;10.11;89.04;96226.56;4980385;28;20066;-63
2022/03/31 09:22:45;;;;;;;28.13;18.92;;;;;;;9.87;82.40;96196.00;4987825;28;20545;-64
2022/03/31 09:25:11;;;;;;;23.77;17.23;;;;;;;10.19;80.76;96220.38;4981383;28;20108;-65
2022/03/31 09:27:36;;;;;;;28.80;19.02;;;;;;;10.34;82.57;96221.00;4961294;28;20125;-64
2022/03/31 09:30:08;;;;;;;28.00;19.00;;;;;;;10.30;81.00;96229.38;4984994;28;20038;-63
2022/03/31 09:32:34;;;;;;;26.67;18.95;;;;;;;10.36;80.79;96221.56;4981228;28;20037;-63
2022/03/31 09:35:06;;;;;;;29.15;20.02;;;;;;;10.32;81.06;96214.41;4987656;28;20439;-63
2022/03/31 09:37:32;;;;;;;27.63;18.75;;;;;;;10.38;81.44;96204.00;4976450;28;20040;-63
2022/03/31 09:39:57;;;;;;;30.40;19.33;;;;;;;10.45;81.26;96213.59;4951281;28;20034;-64
2022/03/31 09:42:23;;;;;;;27.38;20.15;;;;;;;10.55;81.52;96206.16;4983202;28;20388;-63
2022/03/31 09:44:56;;;;;;;27.55;18.75;;;;;;;10.68;81.16;96195.75;4984731;28;20089;-63
2022/03/31 09:47:21;;;;;;;23.48;17.25;;;;;;;10.85;78.37;96208.31;4982018;28;20859;-63
2022/03/31 09:49:54;;;;;;;26.52;17.63;;;;;;;10.55;75.91;96160.22;4985905;28;20038;-65
2022/03/31 09:52:20;;;;;;;24.80;17.95;;;;;;;10.67;78.60;96156.97;4981995;28;20026;-64
2022/03/31 09:54:47;;;;;;;28.38;17.83;;;;;;;11.02;76.50;96185.22;4984738;28;20091;-64
2022/03/31 09:57:13;;;;;;;22.42;16.58;;;;;;;11.12;77.07;96188.19;4982766;28;20500;-64
2022/03/31 09:59:40;;;;;;;24.17;16.50;;;;;;;11.08;75.21;96168.78;4985385;28;20030;-64
2022/03/31 10:02:07;;;;;;;20.52;15.40;;;;;;;11.15;74.92;96185.97;4980315;28;20034;-64
2022/03/31 10:04:34;;;;;;;20.05;15.50;;;;;;;11.30;75.51;96177.91;4998574;28;20030;-64
2022/03/31 10:07:00;;;;;;;22.92;15.57;;;;;;;11.27;72.66;96174.91;4983587;28;20026;-64
2022/03/31 10:09:26;;;;;;;20.88;15.52;;;;;;;11.38;73.93;96181.25;4983471;28;20053;-64
2022/03/31 10:12:03;;;;;;;25.08;17.45;;;;;;;11.48;75.44;96174.59;4983293;28;20034;-64
2022/03/31 10:14:54;;;;;;;22.55;17.30;;;;;;;11.61;75.55;96168.50;4974576;28;21900;-64
2022/03/31 10:17:26;;;;;;;26.70;17.90;;;;;;;11.76;76.32;96164.81;4958198;28;20042;-64
2022/03/31 10:19:51;;;;;;;22.63;15.52;;;;;;;11.78;74.23;96160.97;4981610;28;20034;-64
2022/03/31 10:25:05;;;;;;;23.33;17.80;;;;;;;12.13;75.57;96155.31;4980476;28;20038;-64
2022/03/31 10:27:32;;;;;;;23.63;18.77;;;;;;;11.82;74.08;96114.47;4984954;28;20030;-64
2022/03/31 10:30:10;;;;;;;24.98;18.30;;;;;;;12.07;74.44;96151.75;4985277;28;20069;-65
2022/03/31 10:32:36;;;;;;;24.05;16.63;;;;;;;12.12;74.47;96151.13;4980007;28;20023;-64
2022/03/31 10:35:01;;;;;;;21.45;16.33;;;;;;;12.07;73.10;96146.53;4985286;28;20555;-64
2022/03/31 10:37:38;;;;;;;23.75;16.58;;;;;;;12.08;74.21;96139.50;4980532;28;20034;-63
2022/03/31 10:40:07;;;;;;;22.42;16.08;;;;;;;12.14;74.38;96141.28;4979462;28;20060;-64
2022/03/31 10:42:32;;;;;;;26.27;16.70;;;;;;;12.09;73.58;96135.91;4981285;28;20770;-64
2022/03/31 10:45:09;;;;;;;23.42;16.48;;;;;;;11.88;72.50;96109.22;4970042;28;20030;-65
2022/03/31 10:47:36;;;;;;;24.92;16.45;;;;;;;12.15;73.27;96129.84;4962027;28;20039;-64
2022/03/31 10:50:03;;;;;;;22.73;16.10;;;;;;;11.87;71.44;96094.59;4968331;28;20034;-64
2022/03/31 10:52:29;;;;;;;23.02;16.55;;;;;;;12.14;72.94;96128.25;4980131;28;20032;-65
2022/03/31 10:55:21;;;;;;;24.13;16.17;;;;;;;12.34;70.41;96117.63;5009524;28;20564;-64
2022/03/31 10:57:46;;;;;;;22.73;15.15;;;;;;;12.32;72.12;96109.25;4980596;28;20046;-65
2022/03/31 11:00:17;;;;;;;24.73;15.73;;;;;;;12.09;71.26;96076.78;4979618;28;20508;-64
2022/03/31 11:02:45;;;;;;;21.05;15.38;;;;;;;12.28;70.18;96105.47;4984588;28;20030;-64
2022/03/31 11:05:11;;;;;;;22.35;15.13;;;;;;;12.34;71.16;96094.19;4974508;28;20690;-65
2022/03/31 11:07:37;;;;;;;20.27;15.07;;;;;;;12.34;70.20;96090.75;4982610;28;20038;-64
2022/03/31 11:10:07;;;;;;;21.10;14.43;;;;;;;12.41;70.35;96094.09;4983816;28;20045;-65
2022/03/31 11:12:33;;;;;;;21.23;15.10;;;;;;;12.38;69.21;96089.34;4972813;28;20057;-64
2022/03/31 11:15:04;;;;;;;20.48;15.25;;;;;;;12.22;69.57;96051.63;4982814;28;20060;-64
2022/03/31 11:17:30;;;;;;;22.35;14.73;;;;;;;12.56;67.18;96072.88;4982423;28;20155;-64
2022/03/31 11:20:03;;;;;;;20.65;15.07;;;;;;;12.44;67.96;96054.56;4972899;28;20069;-64
2022/03/31 11:22:29;;;;;;;21.98;15.32;;;;;;;12.41;67.97;96049.78;4981987;28;20050;-64